Airfield :
LOGIN :

Register | Disclaimer

   EN    FR    IT 

 










Legend :    VFR   Marginal VFR   IFR   Intensive IFR   Very Intensive IFR
Visi :
Ceiling :
>= 8 km
>= 3000ft
5 to 8 km
1000 to 3000 ft
1500m to 5 km
500 to 1000 ft
800 to 1500m
200 to 500 ft
< 800m
< 200 ft
Symbols :   Thunderstorms  Fog  Heavy snow  Heavy precipitations  Wind > 20 kt
SIGMETs :     Misc.  Thunderstorms  Icing  Turbulence  Mountain Waves  Volcanic Ashes






- Airport Elevation : 33 ft
- IATA code : PLQ


EYPA - Palanga

CURRENT METAR :
  • 211050Z VRB04KT CAVOK 22/17 Q1012

EXPIRED METARs :
  • 211020Z 27004KT 230V320 CAVOK 22/17 Q1012
  • 210950Z 31004KT 270V070 CAVOK 21/15 Q1012
  • 210920Z VRB02KT CAVOK 21/16 Q1012
  • 210850Z 31003KT 250V030 CAVOK 20/16 Q1012
  • 210820Z VRB01KT CAVOK 21/15 Q1012
  • 210750Z VRB02KT CAVOK 20/14 Q1012
  • 210720Z VRB01KT CAVOK 19/15 Q1012
  • 210650Z 12003KT 080V170 CAVOK 18/16 Q1012
  • 210620Z VRB02KT CAVOK 18/16 Q1012

TAF TAF EYPA
Valid from the 21 at 06:00 until the 22 at 06:00 UTC


210503Z 2106/2206 VRB04KT 9000 NSC
TEMPO 2106/2107 SCT002
TEMPO 2107/2112 30010KT SCT050
TEMPO 2112/2118 34012KT SCT050TCU
BECMG 2120/2121 5000 MIFG BR SCT003
TEMPO 2121/2204 0500 FG VV001



MET'MAP, your aeronautical weather chart ! - Copyright ORBIFLY December 2007 - Disclaimer

ORBIFLY MET'MAP TEAM :

Programming & Development : Alexandra Zaïnal
Original concept : Baudouin d'Aumeries
Technical & hardware support : Manuel Goepfert
Assistance : Marc-Olivier Méhu




SOURCES & CREDITS :

   NOAA